createdAt,value
2024-04-24T00:03:06.821Z,78.40
2024-04-24T00:06:51.458Z,78.50
2024-04-24T00:10:33.525Z,78.70
2024-04-24T00:14:15.557Z,78.90
2024-04-24T00:17:57.618Z,78.90
2024-04-24T00:21:39.553Z,78.90
2024-04-24T00:25:21.558Z,79.20
2024-04-24T00:29:03.594Z,79.40
2024-04-24T00:32:45.649Z,79.10
2024-04-24T00:36:31.144Z,79.40
2024-04-24T00:40:13.576Z,79.90
2024-04-24T00:43:55.578Z,80.10
2024-04-24T00:47:39.934Z,80.30
2024-04-24T00:51:24.360Z,80.30
2024-04-24T00:55:06.731Z,80.70
2024-04-24T00:58:49.265Z,80.80
2024-04-24T01:02:31.417Z,80.90
2024-04-24T01:06:13.325Z,81.10
2024-04-24T01:09:55.415Z,81.60
2024-04-24T01:13:37.502Z,82.00
2024-04-24T01:17:20.230Z,82.30
2024-04-24T01:21:04.453Z,82.60
2024-04-24T01:24:57.861Z,82.80
2024-04-24T01:28:40.088Z,82.70
2024-04-24T01:32:22.104Z,82.90
2024-04-24T01:36:04.417Z,83.00
2024-04-24T01:39:46.390Z,83.10
2024-04-24T01:43:28.351Z,83.40
2024-04-24T01:47:10.416Z,83.50
2024-04-24T01:50:52.422Z,83.50
2024-04-24T01:54:34.362Z,83.50
2024-04-24T01:58:16.437Z,83.50
2024-04-24T02:01:58.460Z,83.60
2024-04-24T02:05:40.437Z,83.70
2024-04-24T02:09:22.450Z,83.70
2024-04-24T02:13:04.668Z,83.80
2024-04-24T02:16:46.700Z,83.70
2024-04-24T02:20:28.697Z,83.70
2024-04-24T02:24:10.758Z,83.40
2024-04-24T02:27:52.750Z,83.50
2024-04-24T02:31:34.671Z,83.60
2024-04-24T02:35:16.772Z,83.70
2024-04-24T02:38:58.807Z,84.30
2024-04-24T02:42:40.800Z,83.60
2024-04-24T02:46:22.791Z,83.60
2024-04-24T02:50:05.015Z,83.50
2024-04-24T02:53:47.024Z,83.60
2024-04-24T02:57:29.942Z,83.80
2024-04-24T03:01:15.320Z,83.80
2024-04-24T03:04:57.321Z,84.00
2024-04-24T03:08:39.300Z,84.00
2024-04-24T03:12:21.312Z,84.00
2024-04-24T03:16:03.388Z,83.80
2024-04-24T03:19:45.410Z,84.00
2024-04-24T03:23:27.365Z,84.00
2024-04-24T03:27:11.810Z,84.00
2024-04-24T03:30:53.858Z,84.00
2024-04-24T03:34:35.780Z,84.00
2024-04-24T03:38:17.833Z,84.00
2024-04-24T03:41:59.901Z,84.00
2024-04-24T03:45:41.892Z,84.10
2024-04-24T03:49:23.872Z,84.10
2024-04-24T03:53:05.956Z,84.80
2024-04-24T03:56:47.916Z,84.30
2024-04-24T04:00:29.819Z,84.20
2024-04-24T04:04:11.925Z,84.50
2024-04-24T04:08:00.816Z,84.60
2024-04-24T04:11:45.757Z,84.70
2024-04-24T04:15:30.328Z,85.40
2024-04-24T04:19:12.515Z,84.90
2024-04-24T04:22:56.002Z,85.60
2024-04-24T04:26:37.964Z,85.00
2024-04-24T04:30:20.171Z,85.00
2024-04-24T04:34:02.125Z,85.10
2024-04-24T04:37:44.102Z,85.10
2024-04-24T04:41:26.027Z,85.20
2024-04-24T04:45:08.486Z,85.20
2024-04-24T04:48:52.944Z,85.40
2024-04-24T04:52:35.058Z,85.40
2024-04-24T04:56:17.024Z,85.60
2024-04-24T04:59:59.046Z,85.70
2024-04-24T05:03:40.988Z,85.90
2024-04-24T05:07:22.926Z,86.00
2024-04-24T05:11:05.685Z,86.80
2024-04-24T05:14:50.767Z,86.20
2024-04-24T05:18:33.192Z,86.30
2024-04-24T05:22:15.654Z,86.40
2024-04-24T05:25:58.872Z,86.50
2024-04-24T05:29:40.809Z,86.60
2024-04-24T05:33:22.878Z,86.50
2024-04-24T05:37:05.188Z,86.50
2024-04-24T05:40:47.207Z,86.60
2024-04-24T05:44:34.980Z,86.70
2024-04-24T05:48:17.004Z,86.80
2024-04-24T05:51:59.296Z,86.90
2024-04-24T05:55:41.703Z,86.90
2024-04-24T05:59:23.668Z,87.00
2024-04-24T06:03:07.498Z,87.10
2024-04-24T06:06:51.165Z,87.30
2024-04-24T06:10:35.109Z,87.40
2024-04-24T06:14:17.157Z,87.50
2024-04-24T06:17:59.245Z,87.60
2024-04-24T06:21:41.590Z,87.70
2024-04-24T06:25:23.825Z,87.80
2024-04-24T06:29:05.854Z,88.00
2024-04-24T06:32:47.961Z,88.20
2024-04-24T06:36:30.621Z,88.30
2024-04-24T06:40:12.644Z,88.10
2024-04-24T06:43:55.285Z,88.10
2024-04-24T06:47:37.595Z,88.10
2024-04-24T06:51:22.550Z,88.10
2024-04-24T06:55:05.907Z,88.00
2024-04-24T06:58:47.892Z,87.90
2024-04-24T07:02:29.867Z,87.80
2024-04-24T07:06:11.773Z,87.60
2024-04-24T07:09:53.671Z,87.40
2024-04-24T07:13:35.695Z,87.10
2024-04-24T07:17:17.696Z,86.70
2024-04-24T07:20:59.775Z,86.30
2024-04-24T07:24:41.670Z,86.40
2024-04-24T07:28:23.841Z,86.30
2024-04-24T07:32:06.210Z,86.10
2024-04-24T07:35:48.238Z,86.10
2024-04-24T07:39:30.141Z,85.90
2024-04-24T07:43:15.250Z,85.40
2024-04-24T07:46:59.261Z,85.30
2024-04-24T07:50:47.066Z,85.20
2024-04-24T07:54:29.159Z,85.30
2024-04-24T07:58:11.127Z,84.80
2024-04-24T08:01:53.152Z,84.40
2024-04-24T08:05:36.870Z,83.40
2024-04-24T08:09:19.791Z,82.90
2024-04-24T08:13:01.786Z,83.00
2024-04-24T08:16:43.714Z,82.30
2024-04-24T08:20:25.744Z,82.10
2024-04-24T08:24:07.918Z,81.80
2024-04-24T08:27:52.105Z,81.50
2024-04-24T08:31:34.007Z,80.70
2024-04-24T08:35:16.086Z,79.80
2024-04-24T08:38:58.381Z,79.50
2024-04-24T08:42:40.459Z,78.30
2024-04-24T08:46:22.605Z,78.30
2024-04-24T08:50:04.894Z,77.30
2024-04-24T08:53:54.512Z,76.10
2024-04-24T08:57:37.958Z,75.20
2024-04-24T09:01:22.796Z,75.60
2024-04-24T09:05:07.828Z,74.70
2024-04-24T09:08:51.957Z,74.10
2024-04-24T09:12:36.835Z,73.90
2024-04-24T09:16:22.018Z,73.00
2024-04-24T09:20:04.210Z,72.30
2024-04-24T09:23:46.132Z,71.90
2024-04-24T09:27:30.507Z,71.70
2024-04-24T09:31:13.220Z,70.00
2024-04-24T09:34:55.551Z,70.30
2024-04-24T09:38:37.633Z,70.00
2024-04-24T09:42:19.778Z,69.70
2024-04-24T09:46:01.972Z,69.20
2024-04-24T09:49:45.022Z,69.00
2024-04-24T09:53:27.153Z,68.90
2024-04-24T09:57:12.587Z,68.80
2024-04-24T10:00:55.369Z,68.50
2024-04-24T10:04:42.427Z,68.30
2024-04-24T10:08:30.630Z,68.70
2024-04-24T10:12:26.096Z,69.10
2024-04-24T10:16:09.828Z,68.50
2024-04-24T10:19:52.971Z,69.20
2024-04-24T10:23:36.335Z,69.40
2024-04-24T10:27:21.940Z,67.10
2024-04-24T10:31:04.729Z,62.90
2024-04-24T10:34:48.042Z,59.70
2024-04-24T10:38:34.342Z,55.60
2024-04-24T10:42:17.400Z,55.10
2024-04-24T10:46:01.366Z,53.90
2024-04-24T10:49:59.310Z,52.90
2024-04-24T10:53:55.898Z,54.00
2024-04-24T10:57:49.538Z,50.40
2024-04-24T11:01:41.835Z,47.80
2024-04-24T11:05:37.273Z,46.60
2024-04-24T11:09:21.708Z,46.20
2024-04-24T11:13:14.207Z,43.60
2024-04-24T11:16:57.140Z,45.80
2024-04-24T11:20:39.384Z,44.70
2024-04-24T11:24:34.709Z,45.20
2024-04-24T11:28:20.410Z,48.10
2024-04-24T11:32:05.170Z,47.70
2024-04-24T11:35:47.701Z,48.50
2024-04-24T11:39:29.821Z,50.10
2024-04-24T11:43:11.920Z,49.70
2024-04-24T11:46:54.770Z,49.70
2024-04-24T11:50:37.192Z,50.00
2024-04-24T11:54:19.297Z,51.50
2024-04-24T11:58:08.935Z,48.20
2024-04-24T12:01:50.969Z,47.40
2024-04-24T12:05:33.248Z,46.60
2024-04-24T12:09:18.345Z,45.50
2024-04-24T12:13:00.721Z,45.10
2024-04-24T12:16:43.994Z,43.00
2024-04-24T12:20:26.165Z,42.20
2024-04-24T12:24:08.589Z,41.00
2024-04-24T12:27:50.625Z,42.60
2024-04-24T12:31:33.450Z,43.40
2024-04-24T12:35:15.518Z,45.10
2024-04-24T12:38:57.468Z,46.50
2024-04-24T12:42:39.513Z,46.90
2024-04-24T12:46:21.468Z,47.10
2024-04-24T12:50:03.594Z,47.00
2024-04-24T12:53:45.667Z,49.00
2024-04-24T12:57:27.670Z,47.20
2024-04-24T13:01:19.303Z,46.20
2024-04-24T13:05:05.022Z,47.60
2024-04-24T13:08:48.046Z,46.60
2024-04-24T13:12:30.446Z,44.90
2024-04-24T13:16:12.448Z,41.90
2024-04-24T13:19:54.505Z,40.30
2024-04-24T13:23:36.568Z,40.70
2024-04-24T13:27:18.546Z,41.10
2024-04-24T13:31:03.899Z,42.20
2024-04-24T13:34:47.422Z,42.60
2024-04-24T13:38:29.318Z,42.30
2024-04-24T13:42:11.319Z,40.90
2024-04-24T13:45:53.261Z,39.60
2024-04-24T13:49:35.294Z,39.00
2024-04-24T13:53:17.235Z,37.10
2024-04-24T13:56:59.413Z,36.90
2024-04-24T14:00:41.537Z,38.30
2024-04-24T14:04:23.814Z,39.50
2024-04-24T14:08:05.851Z,40.70
2024-04-24T14:11:48.595Z,42.90
2024-04-24T14:15:30.535Z,41.40
2024-04-24T14:19:12.508Z,39.00
2024-04-24T14:22:54.653Z,37.90
2024-04-24T14:26:36.570Z,37.50
2024-04-24T14:30:18.551Z,36.10
2024-04-24T14:34:00.504Z,35.20
2024-04-24T14:37:42.558Z,34.50
2024-04-24T14:41:25.447Z,35.50
2024-04-24T14:45:07.597Z,36.30
2024-04-24T14:48:49.679Z,37.30
2024-04-24T14:52:33.029Z,38.60
2024-04-24T14:56:15.131Z,39.40
2024-04-24T14:59:57.095Z,41.30
2024-04-24T15:03:39.169Z,42.30
2024-04-24T15:07:21.148Z,41.70
2024-04-24T15:11:04.130Z,42.40
2024-04-24T15:14:47.467Z,42.20
2024-04-24T15:18:33.669Z,42.50
2024-04-24T15:22:16.069Z,42.60
2024-04-24T15:25:58.180Z,41.40
2024-04-24T15:29:40.135Z,42.00
2024-04-24T15:33:22.299Z,45.30
2024-04-24T15:37:07.102Z,43.50
2024-04-24T15:40:49.055Z,42.80
2024-04-24T15:44:35.174Z,42.40
2024-04-24T15:48:20.058Z,43.70
2024-04-24T15:52:01.999Z,43.60
2024-04-24T15:55:43.963Z,44.40
2024-04-24T15:59:28.980Z,44.60
2024-04-24T16:03:11.328Z,44.50
2024-04-24T16:06:54.855Z,43.80
2024-04-24T16:10:36.989Z,43.90
2024-04-24T16:14:19.003Z,43.90
2024-04-24T16:18:03.987Z,43.50
2024-04-24T16:21:46.348Z,43.80
2024-04-24T16:25:28.450Z,44.20
2024-04-24T16:29:11.086Z,43.70
2024-04-24T16:32:53.778Z,44.00
2024-04-24T16:36:37.045Z,45.70
2024-04-24T16:40:19.042Z,43.80
2024-04-24T16:44:01.233Z,44.80
2024-04-24T16:47:43.454Z,44.50
2024-04-24T16:51:25.448Z,44.50
2024-04-24T16:55:08.109Z,43.80
2024-04-24T16:58:50.032Z,44.50
2024-04-24T17:02:33.192Z,44.30
2024-04-24T17:06:15.302Z,44.50
2024-04-24T17:09:57.308Z,44.40
2024-04-24T17:13:39.286Z,44.50
2024-04-24T17:17:21.292Z,45.00
2024-04-24T17:21:03.529Z,44.20
2024-04-24T17:24:45.623Z,44.80
2024-04-24T17:28:28.567Z,44.80
2024-04-24T17:32:10.890Z,44.40
2024-04-24T17:35:52.942Z,44.00
2024-04-24T17:39:34.991Z,44.30
2024-04-24T17:43:17.103Z,44.80
2024-04-24T17:46:59.118Z,44.70
2024-04-24T17:50:41.106Z,44.70
2024-04-24T17:54:23.084Z,46.30
2024-04-24T17:58:05.099Z,46.10
2024-04-24T18:01:47.618Z,45.00
2024-04-24T18:05:31.098Z,45.30
2024-04-24T18:09:13.148Z,46.60
2024-04-24T18:12:56.068Z,46.20
2024-04-24T18:16:38.187Z,46.50
2024-04-24T18:20:20.073Z,45.90
2024-04-24T18:24:02.286Z,46.30
2024-04-24T18:27:45.018Z,47.40
2024-04-24T18:31:27.192Z,46.50
2024-04-24T18:35:09.146Z,47.10
2024-04-24T18:38:51.227Z,47.30
2024-04-24T18:42:34.053Z,47.70
2024-04-24T18:46:17.304Z,47.80
2024-04-24T18:49:59.529Z,49.70
2024-04-24T18:53:41.615Z,49.10
2024-04-24T18:57:23.641Z,50.20
2024-04-24T19:01:05.717Z,50.40
2024-04-24T19:04:47.707Z,50.90
2024-04-24T19:08:29.714Z,51.10
2024-04-24T19:12:11.717Z,51.10
2024-04-24T19:15:53.883Z,51.60
2024-04-24T19:19:35.866Z,52.10
2024-04-24T19:23:17.955Z,53.00
2024-04-24T19:27:00.048Z,53.50
2024-04-24T19:30:42.001Z,53.40
2024-04-24T19:34:24.024Z,53.90
2024-04-24T19:38:05.962Z,54.70
2024-04-24T19:41:47.919Z,54.80
2024-04-24T19:45:30.029Z,54.80
2024-04-24T19:49:11.931Z,55.00
2024-04-24T19:52:54.049Z,55.50
2024-04-24T19:56:39.842Z,55.70
2024-04-24T20:00:22.090Z,56.00
2024-04-24T20:04:04.111Z,56.50
2024-04-24T20:07:46.124Z,56.30
2024-04-24T20:11:28.181Z,56.50
2024-04-24T20:15:13.367Z,57.60
2024-04-24T20:18:58.248Z,57.90
2024-04-24T20:22:40.221Z,58.00
2024-04-24T20:26:22.336Z,59.10
2024-04-24T20:30:05.138Z,58.30
2024-04-24T20:33:47.335Z,58.90
2024-04-24T20:37:29.351Z,59.80
2024-04-24T20:41:11.325Z,60.20
2024-04-24T20:44:55.327Z,60.70
2024-04-24T20:48:37.630Z,60.60
2024-04-24T20:52:19.625Z,60.70
2024-04-24T20:56:09.173Z,60.50
2024-04-24T20:59:53.341Z,60.90
2024-04-24T21:03:37.135Z,61.90
2024-04-24T21:07:20.215Z,62.10
2024-04-24T21:11:03.563Z,62.40
2024-04-24T21:14:45.727Z,62.80
2024-04-24T21:18:30.364Z,63.40
2024-04-24T21:22:12.412Z,63.00
2024-04-24T21:25:58.639Z,63.20
2024-04-24T21:29:40.771Z,63.60
2024-04-24T21:33:22.872Z,64.10
2024-04-24T21:37:05.766Z,64.30
2024-04-24T21:40:47.740Z,64.70
2024-04-24T21:44:30.144Z,65.20
2024-04-24T21:48:12.096Z,65.40
2024-04-24T21:51:54.104Z,65.90
2024-04-24T21:55:36.079Z,66.30
2024-04-24T21:59:18.065Z,66.60
2024-04-24T22:03:00.006Z,66.70
2024-04-24T22:06:44.895Z,66.80
2024-04-24T22:10:26.818Z,67.60
2024-04-24T22:14:08.792Z,68.10
2024-04-24T22:17:50.869Z,68.20
2024-04-24T22:21:33.000Z,68.50
2024-04-24T22:25:17.284Z,68.70
2024-04-24T22:28:59.308Z,68.60
2024-04-24T22:32:42.397Z,69.00
2024-04-24T22:36:24.604Z,69.50
2024-04-24T22:40:07.019Z,69.30
2024-04-24T22:43:49.160Z,68.90
2024-04-24T22:47:31.261Z,68.90
2024-04-24T22:51:14.422Z,69.20
2024-04-24T22:54:56.355Z,69.10
2024-04-24T22:58:38.278Z,68.70
2024-04-24T23:02:20.209Z,68.60
2024-04-24T23:06:02.249Z,68.70
2024-04-24T23:09:44.201Z,68.50
2024-04-24T23:13:26.159Z,68.00
2024-04-24T23:17:08.280Z,67.70
2024-04-24T23:20:50.483Z,68.00
2024-04-24T23:24:32.425Z,68.50
2024-04-24T23:28:14.383Z,68.90
2024-04-24T23:31:56.404Z,68.20
2024-04-24T23:35:38.477Z,68.30
2024-04-24T23:39:20.409Z,68.40
2024-04-24T23:43:02.319Z,68.40
2024-04-24T23:46:44.346Z,68.10
2024-04-24T23:50:26.356Z,68.20
2024-04-24T23:54:08.296Z,68.10
2024-04-24T23:57:50.276Z,68.20
